Ciudad Victoria, Mexico

10:08 PM CDT on July 13, 2014 (GMT -0500)
Ciudad Victoria (MMCV) Elev 781 ft | 23.70 °N, 98.96 °W | Change Station

Current weather conditions updated 26 minutes ago

Clear
Clear
82 °F
Feels Like 85 °F
N
4
Wind Variable Wind from SSE

Tomorrow is forecast to be nearly the same temperature as today.

Today
High -- | Low -- °F
--% Chance of Precip.
Yesterday
High -- | Low -- °F
Precip. -- in
6:57 AM 8:25 PM
Waning Gibbous, 96% visible
Pressure 29.99 in
Visibility 10.0 miles
Clouds Clear
Heat Index 85 °F
Dew Point 66 °F
Humidity 58%
Rainfall 0.00 in
Snow Depth Not available.
UV 0 out of 12
Pollen Not available.
Air Quality Not available.
Flu Activity Not available.
METAR MMCV 140242Z 15003KT 10SM SKC 28/19 A3000 RMK SLP153 52004 971 HZY DSNT CB NW

More Conditions Fewer Conditions

Pressure 29.99 in
Visibility 10.0 miles
Clouds Clear
Heat Index 85 °F
Dew Point 66 °F
Humidity 58%
Rainfall 0.00 in
Snow Depth Not available.
UV 0 out of 12
Pollen Not available.
Air Quality Not available.
Flu Activity Not available.
METAR MMCV 140242Z 15003KT 10SM SKC 28/19 A3000 RMK SLP153 52004 971 HZY DSNT CB NW

More Conditions Fewer Conditions

10-Day Weather Forecast

Almanac

Astronomy

Jul. 13, 2014 Rise Set
Actual Time 6:57 AM CDT 8:25 PM CDT
Civil Twilight 6:32 AM CDT 8:50 PM CDT
Nautical Twilight 6:02 AM CDT 9:20 PM CDT
Astronomical Twilight 5:31 AM CDT 9:51 PM CDT
Moon 9:33 PM CDT (7/13) 8:14 AM CDT (7/13)
Length of Visible Light 14h 18m
Length of Day
13h 28m
Tomorrow will be 0m 38s shorter.
Waning Gibbous, 96% of the Moon is Illuminated
Today
Waning Gibbous
Jul 18
Last Quarter
Jul 26
New
Aug 3
First Quarter
Aug 10
Full

Today's Extremes

Country Highs Country Lows

Community

WunderPhotos

Upload Photos

1,733,505 photos uploaded!

Nearby

Snow Depth

Not available.

Earthquake Activity

City Distance Mag. Time & Date
No recent earthquake activity has been reported nearby.
Minimum magnitude displayed is 2.5.

Coastal Water Temperatures

Place Temperature
No Stations Reporting

Nearby Weather Stations

Station Location Temp. Heat Index Dew Point Humidity Wind Precip. Elev Updated Type
Zona Centro XE2WK, Victoria 84.0 °F 89 °F 72 °F 66% WSW  at  0.0 mph 0.00 in / hr 1093 ft 10:08 PM CDT Rapid Fire
Zona Poniente XE2WO, Ciudad Victoria 87.8 °F 91 °F 68 °F 52% East  at  4.0 mph 0.00 in / hr 1053 ft 8:24 PM CDT Rapid Fire

Show More Stations Show Fewer Stations